createdAt,value
2022-11-24T00:01:26.013Z,16.65
2022-11-24T00:03:56.619Z,15.85
2022-11-24T00:06:24.997Z,14.95
2022-11-24T00:08:52.725Z,16.10
2022-11-24T00:11:24.153Z,15.77
2022-11-24T00:13:51.501Z,16.38
2022-11-24T00:16:24.297Z,15.73
2022-11-24T00:18:55.441Z,16.05
2022-11-24T00:21:23.696Z,14.32
2022-11-24T00:23:51.812Z,15.52
2022-11-24T00:26:38.420Z,14.15
2022-11-24T00:29:08.067Z,13.40
2022-11-24T00:31:41.921Z,13.15
2022-11-24T00:34:14.903Z,14.27
2022-11-24T00:36:42.976Z,14.43
2022-11-24T00:39:15.835Z,13.30
2022-11-24T00:41:43.656Z,12.65
2022-11-24T00:44:10.926Z,12.68
2022-11-24T00:46:38.748Z,14.02
2022-11-24T00:49:06.236Z,12.65
2022-11-24T00:51:33.819Z,13.75
2022-11-24T00:54:01.955Z,13.80
2022-11-24T00:56:30.086Z,11.07
2022-11-24T00:58:57.237Z,11.80
2022-11-24T01:01:28.254Z,11.98
2022-11-24T01:03:55.871Z,11.00
2022-11-24T01:06:26.535Z,10.65
2022-11-24T01:08:56.536Z,10.30
2022-11-24T01:11:52.573Z,8.90
2022-11-24T01:14:23.432Z,10.77
2022-11-24T01:16:50.820Z,10.02
2022-11-24T01:19:18.139Z,10.35
2022-11-24T01:21:45.880Z,8.57
2022-11-24T01:24:14.124Z,9.95
2022-11-24T01:26:41.833Z,8.65
2022-11-24T01:29:12.067Z,9.30
2022-11-24T01:31:39.647Z,9.32
2022-11-24T01:34:06.978Z,9.07
2022-11-24T01:36:35.052Z,8.95
2022-11-24T01:39:02.149Z,8.52
2022-11-24T01:41:29.224Z,8.65
2022-11-24T01:43:57.848Z,9.88
2022-11-24T01:46:50.063Z,9.10
2022-11-24T01:49:57.843Z,9.73
2022-11-24T01:53:00.105Z,9.43
2022-11-24T01:55:37.743Z,9.50
2022-11-24T01:58:24.568Z,8.85
2022-11-24T02:01:18.737Z,8.43
2022-11-24T02:03:51.115Z,8.60
2022-11-24T02:06:25.185Z,9.60
2022-11-24T02:09:03.364Z,8.63
2022-11-24T02:11:37.858Z,8.85
2022-11-24T02:14:13.101Z,9.10
2022-11-24T02:16:44.242Z,10.07
2022-11-24T02:19:47.798Z,9.70
2022-11-24T02:22:33.302Z,8.45
2022-11-24T02:25:28.022Z,8.48
2022-11-24T02:27:58.182Z,8.63
2022-11-24T02:30:25.367Z,8.68
2022-11-24T02:32:53.002Z,8.90
2022-11-24T02:35:20.915Z,9.27
2022-11-24T02:37:48.556Z,9.02
2022-11-24T02:41:26.540Z,9.65
2022-11-24T02:44:02.225Z,8.50
2022-11-24T02:46:42.352Z,8.70
2022-11-24T02:49:55.106Z,8.30
2022-11-24T02:57:11.771Z,10.75
2022-11-24T02:59:39.037Z,10.23
2022-11-24T03:02:06.176Z,9.93
2022-11-24T03:04:33.561Z,10.25
2022-11-24T03:07:00.940Z,10.60
2022-11-24T03:09:30.428Z,11.77
2022-11-24T03:11:57.432Z,9.85
2022-11-24T03:14:24.586Z,10.18
2022-11-24T03:16:51.791Z,11.68
2022-11-24T03:19:18.892Z,11.65
2022-11-24T03:21:45.955Z,9.75
2022-11-24T03:24:13.168Z,9.73
2022-11-24T03:27:03.579Z,9.82
2022-11-24T03:29:49.189Z,10.30
2022-11-24T03:32:32.802Z,9.70
2022-11-24T03:35:24.273Z,10.23
2022-11-24T03:37:54.434Z,10.93
2022-11-24T03:40:21.519Z,10.07
2022-11-24T03:42:48.655Z,9.57
2022-11-24T03:45:44.352Z,9.82
2022-11-24T03:48:03.392Z,10.23
2022-11-24T03:50:30.629Z,9.48
2022-11-24T03:52:58.006Z,11.23
2022-11-24T03:55:25.187Z,10.10
2022-11-24T03:57:52.382Z,10.65
2022-11-24T04:00:19.771Z,11.68
2022-11-24T04:02:48.154Z,9.30
2022-11-24T04:05:15.369Z,12.20
2022-11-24T04:07:42.586Z,11.45
2022-11-24T04:10:09.876Z,10.98
2022-11-24T04:12:44.880Z,12.10
2022-11-24T04:15:26.533Z,9.07
2022-11-24T04:17:56.224Z,10.05
2022-11-24T04:20:23.674Z,10.57
2022-11-24T04:22:57.478Z,11.80
2022-11-24T04:25:24.786Z,10.07
2022-11-24T04:27:53.772Z,12.20
2022-11-24T04:30:23.341Z,11.55
2022-11-24T04:32:51.172Z,12.13
2022-11-24T04:35:19.493Z,12.95
2022-11-24T04:37:46.882Z,12.02
2022-11-24T04:40:14.439Z,11.27
2022-11-24T04:42:41.952Z,11.10
2022-11-24T04:45:11.117Z,11.98
2022-11-24T04:47:38.416Z,10.52
2022-11-24T04:50:07.752Z,10.48
2022-11-24T04:52:35.536Z,10.88
2022-11-24T04:55:03.283Z,10.93
2022-11-24T04:57:30.301Z,11.70
2022-11-24T05:00:15.967Z,12.52
2022-11-24T05:02:46.618Z,12.43
2022-11-24T05:05:13.778Z,12.10
2022-11-24T05:07:40.846Z,11.90
2022-11-24T05:10:26.857Z,11.40
2022-11-24T05:12:56.899Z,11.35
2022-11-24T05:15:24.148Z,11.48
2022-11-24T05:17:51.568Z,10.27
2022-11-24T05:20:19.057Z,10.23
2022-11-24T05:22:46.228Z,10.23
2022-11-24T05:25:14.322Z,11.05
2022-11-24T05:27:41.703Z,10.35
2022-11-24T05:30:09.676Z,10.93
2022-11-24T05:32:36.848Z,10.57
2022-11-24T05:35:04.793Z,9.95
2022-11-24T05:37:31.942Z,10.85
2022-11-24T05:39:58.999Z,9.48
2022-11-24T05:42:46.510Z,10.35
2022-11-24T05:45:21.376Z,9.98
2022-11-24T05:47:51.640Z,10.32
2022-11-24T05:50:21.705Z,11.80
2022-11-24T05:52:49.958Z,12.15
2022-11-24T05:55:19.613Z,11.77
2022-11-24T05:57:46.846Z,11.70
2022-11-24T06:00:15.753Z,11.45
2022-11-24T06:02:43.033Z,11.80
2022-11-24T06:05:16.419Z,12.80
2022-11-24T06:07:43.688Z,12.55
2022-11-24T06:10:10.888Z,12.13
2022-11-24T06:12:40.120Z,12.70
2022-11-24T06:15:07.820Z,12.93
2022-11-24T06:17:35.038Z,11.80
2022-11-24T06:20:02.096Z,10.38
2022-11-24T06:22:29.191Z,11.05
2022-11-24T06:24:56.335Z,10.57
2022-11-24T06:27:23.583Z,11.10
2022-11-24T06:29:50.791Z,11.10
2022-11-24T06:32:18.171Z,11.30
2022-11-24T06:34:45.829Z,12.43
2022-11-24T06:37:12.920Z,12.07
2022-11-24T06:39:45.752Z,11.98
2022-11-24T06:42:13.085Z,11.35
2022-11-24T06:44:40.554Z,10.63
2022-11-24T06:47:08.023Z,10.48
2022-11-24T06:49:35.004Z,10.35
2022-11-24T06:52:02.133Z,10.52
2022-11-24T06:54:29.430Z,10.52
2022-11-24T06:56:58.330Z,14.20
2022-11-24T06:59:26.600Z,12.45
2022-11-24T07:01:54.075Z,11.48
2022-11-24T07:04:21.241Z,11.30
2022-11-24T07:06:48.493Z,11.68
2022-11-24T07:09:15.637Z,11.00
2022-11-24T07:11:43.529Z,11.20
2022-11-24T07:14:10.793Z,11.68
2022-11-24T07:16:41.710Z,10.82
2022-11-24T07:19:09.986Z,10.63
2022-11-24T07:21:37.246Z,10.90
2022-11-24T07:24:04.931Z,11.45
2022-11-24T07:26:37.186Z,10.68
2022-11-24T07:29:05.593Z,11.20
2022-11-24T07:31:32.952Z,12.50
2022-11-24T07:34:00.148Z,12.07
2022-11-24T07:36:27.431Z,10.73
2022-11-24T07:38:54.617Z,11.40
2022-11-24T07:41:22.146Z,11.60
2022-11-24T07:43:50.642Z,12.25
2022-11-24T07:46:19.627Z,12.48
2022-11-24T07:48:51.646Z,12.00
2022-11-24T07:51:31.778Z,12.57
2022-11-24T07:53:59.090Z,12.32
2022-11-24T07:56:26.288Z,11.07
2022-11-24T07:58:53.862Z,12.35
2022-11-24T08:01:21.326Z,10.68
2022-11-24T08:03:48.578Z,12.05
2022-11-24T08:06:26.558Z,11.73
2022-11-24T08:08:57.029Z,12.32
2022-11-24T08:11:25.271Z,12.40
2022-11-24T08:14:18.184Z,12.65
2022-11-24T08:16:46.418Z,10.55
2022-11-24T08:19:13.668Z,9.95
2022-11-24T08:21:41.030Z,10.05
2022-11-24T08:24:08.868Z,9.15
2022-11-24T08:26:38.180Z,11.30
2022-11-24T08:29:05.193Z,10.10
2022-11-24T08:31:36.021Z,9.18
2022-11-24T08:34:05.571Z,9.73
2022-11-24T08:36:33.905Z,8.90
2022-11-24T08:39:02.159Z,9.18
2022-11-24T08:41:30.852Z,9.13
2022-11-24T08:43:58.907Z,9.05
2022-11-24T08:46:26.277Z,8.98
2022-11-24T08:48:55.274Z,9.02
2022-11-24T08:51:26.270Z,8.88
2022-11-24T08:54:00.171Z,9.65
2022-11-24T08:56:30.418Z,7.90
2022-11-24T08:58:59.304Z,7.82
2022-11-24T09:01:28.381Z,7.80
2022-11-24T09:03:55.848Z,8.95
2022-11-24T09:06:30.202Z,7.88
2022-11-24T09:08:59.612Z,8.48
2022-11-24T09:11:27.664Z,9.25
2022-11-24T09:13:55.793Z,9.10
2022-11-24T09:16:26.975Z,8.32
2022-11-24T09:19:01.476Z,12.88
2022-11-24T09:21:30.267Z,8.65
2022-11-24T09:23:57.816Z,7.90
2022-11-24T09:26:29.296Z,8.55
2022-11-24T09:28:59.063Z,8.43
2022-11-24T09:31:29.802Z,9.27
2022-11-24T09:33:57.914Z,8.45
2022-11-24T09:36:25.472Z,8.68
2022-11-24T09:38:53.330Z,9.55
2022-11-24T09:41:49.768Z,8.65
2022-11-24T09:44:53.184Z,9.63
2022-11-24T09:48:32.883Z,9.30
2022-11-24T09:51:04.552Z,9.60
2022-11-24T09:53:39.309Z,8.27
2022-11-24T09:56:35.122Z,9.43
2022-11-24T09:59:17.194Z,8.98
2022-11-24T10:01:47.316Z,8.93
2022-11-24T10:04:21.813Z,10.57
2022-11-24T10:07:18.939Z,9.32
2022-11-24T10:10:24.283Z,10.85
2022-11-24T10:13:26.749Z,9.98
2022-11-24T10:16:18.223Z,9.90
2022-11-24T10:19:17.677Z,10.52
2022-11-24T10:22:13.352Z,9.75
2022-11-24T10:25:08.042Z,9.90
2022-11-24T10:28:00.175Z,10.38
2022-11-24T10:30:28.381Z,11.10
2022-11-24T10:33:06.583Z,10.10
2022-11-24T10:35:58.516Z,10.23
2022-11-24T10:38:34.401Z,11.35
2022-11-24T10:41:13.442Z,9.70
2022-11-24T10:43:43.252Z,9.85
2022-11-24T10:46:30.644Z,10.43
2022-11-24T10:49:04.925Z,8.93
2022-11-24T11:03:52.298Z,10.45
2022-11-24T11:06:31.857Z,10.93
2022-11-24T11:09:08.172Z,11.27
2022-11-24T11:11:39.313Z,10.85
2022-11-24T11:14:10.553Z,9.55
2022-11-24T11:16:45.956Z,9.43
2022-11-24T11:19:50.361Z,9.82
2022-11-24T11:31:21.477Z,11.13
2022-11-24T11:34:40.200Z,10.68
2022-11-24T11:37:13.065Z,11.50
2022-11-24T11:40:01.961Z,12.43
2022-11-24T11:45:30.952Z,11.15
2022-11-24T11:48:44.137Z,11.10
2022-11-24T11:56:06.001Z,12.45
2022-11-24T12:00:11.188Z,13.02
2022-11-24T12:03:00.765Z,12.63
2022-11-24T12:10:01.992Z,12.20
2022-11-24T12:15:56.424Z,11.75
2022-11-24T12:18:57.461Z,12.23
2022-11-24T12:26:19.014Z,12.40
2022-11-24T12:50:15.784Z,12.23
2022-11-24T12:53:03.965Z,12.27
2022-11-24T12:55:34.018Z,12.18
2022-11-24T12:58:39.124Z,12.73
2022-11-24T13:01:36.910Z,11.80
2022-11-24T13:04:53.819Z,12.23
2022-11-24T13:18:06.768Z,12.25
2022-11-24T13:20:40.447Z,11.98
2022-11-24T13:23:26.757Z,13.23
2022-11-24T13:26:30.033Z,12.23
2022-11-24T13:29:23.889Z,12.05
2022-11-24T13:31:52.474Z,11.88
2022-11-24T13:34:45.737Z,12.90
2022-11-24T13:37:51.419Z,12.90
2022-11-24T13:40:22.908Z,12.30
2022-11-24T13:43:08.435Z,14.48
2022-11-24T13:46:16.807Z,12.82
2022-11-24T13:48:47.448Z,12.57
2022-11-24T13:51:23.497Z,12.88
2022-11-24T13:53:55.004Z,13.10
2022-11-24T13:56:28.180Z,12.30
2022-11-24T13:59:14.621Z,12.48
2022-11-24T14:01:43.660Z,12.80
2022-11-24T14:04:33.054Z,13.88
2022-11-24T14:07:11.770Z,14.38
2022-11-24T14:09:47.729Z,14.93
2022-11-24T14:12:51.116Z,15.02
2022-11-24T14:15:34.422Z,14.05
2022-11-24T14:18:48.658Z,15.50
2022-11-24T14:21:39.756Z,14.40
2022-11-24T14:28:42.057Z,18.00
2022-11-24T14:31:38.290Z,18.38
2022-11-24T14:34:11.560Z,16.73
2022-11-24T14:36:40.091Z,16.88
2022-11-24T14:39:18.390Z,17.30
2022-11-24T14:41:53.629Z,17.83
2022-11-24T14:44:26.372Z,17.55
2022-11-24T14:47:07.725Z,16.92
2022-11-24T14:49:41.671Z,16.75
2022-11-24T14:52:16.580Z,18.15
2022-11-24T14:55:21.294Z,17.85
2022-11-24T14:57:49.015Z,17.42
2022-11-24T15:00:19.916Z,17.70
2022-11-24T15:02:54.027Z,18.05
2022-11-24T15:05:25.297Z,19.17
2022-11-24T15:08:03.297Z,18.00
2022-11-24T15:10:36.969Z,18.13
2022-11-24T15:13:16.225Z,17.58
2022-11-24T15:16:01.990Z,17.13
2022-11-24T15:18:58.308Z,17.58
2022-11-24T15:21:37.389Z,17.20
2022-11-24T15:24:18.623Z,16.83
2022-11-24T15:26:46.605Z,16.65
2022-11-24T15:29:14.077Z,17.95
2022-11-24T15:31:45.299Z,16.95
2022-11-24T15:34:17.211Z,17.13
2022-11-24T15:36:44.381Z,19.00
2022-11-24T15:39:11.559Z,19.83
2022-11-24T15:41:38.803Z,18.48
2022-11-24T15:44:06.073Z,17.98
2022-11-24T15:46:38.733Z,18.17
2022-11-24T15:49:15.976Z,19.20
2022-11-24T15:51:46.987Z,20.25
2022-11-24T15:54:22.240Z,19.98
2022-11-24T15:56:49.986Z,20.10
2022-11-24T15:59:20.680Z,20.77
2022-11-24T16:01:50.673Z,19.15
2022-11-24T16:04:19.251Z,19.55
2022-11-24T16:06:48.034Z,20.48
2022-11-24T16:09:18.325Z,21.60
2022-11-24T16:11:46.303Z,19.77
2022-11-24T16:14:13.497Z,21.77
2022-11-24T16:16:50.295Z,19.33
2022-11-24T16:19:19.768Z,19.77
2022-11-24T16:21:50.181Z,19.08
2022-11-24T16:24:17.438Z,20.33
2022-11-24T16:26:44.671Z,20.95
2022-11-24T16:29:12.072Z,20.55
2022-11-24T16:31:39.379Z,21.17
2022-11-24T16:34:06.685Z,19.73
2022-11-24T16:36:33.970Z,21.70
2022-11-24T16:39:01.111Z,21.83
2022-11-24T16:41:28.291Z,20.17
2022-11-24T16:43:55.735Z,21.42
2022-11-24T16:46:24.909Z,22.17
2022-11-24T16:48:57.327Z,22.40
2022-11-24T16:51:28.719Z,21.23
2022-11-24T16:54:02.227Z,21.45
2022-11-24T16:56:30.626Z,22.13
2022-11-24T16:58:57.964Z,23.27
2022-11-24T17:01:26.115Z,21.67
2022-11-24T17:03:53.524Z,24.30
2022-11-24T17:06:20.865Z,22.33
2022-11-24T17:08:48.489Z,23.60
2022-11-24T17:11:24.293Z,23.50
2022-11-24T17:13:54.154Z,22.13
2022-11-24T17:16:24.532Z,22.75
2022-11-24T17:18:52.238Z,22.38
2022-11-24T17:21:25.167Z,23.00
2022-11-24T17:24:01.359Z,23.23
2022-11-24T17:26:28.858Z,23.58
2022-11-24T17:28:56.361Z,22.52
2022-11-24T17:31:29.802Z,23.52
2022-11-24T17:33:59.603Z,22.58
2022-11-24T17:36:27.802Z,23.42
2022-11-24T17:38:55.448Z,24.67
2022-11-24T17:41:23.319Z,25.05
2022-11-24T17:43:56.624Z,23.65
2022-11-24T17:46:26.375Z,22.10
2022-11-24T17:48:54.918Z,22.52
2022-11-24T17:51:25.432Z,23.13
2022-11-24T17:53:54.839Z,23.95
2022-11-24T17:56:26.264Z,24.08
2022-11-24T17:58:59.596Z,26.10
2022-11-24T18:01:32.262Z,24.33
2022-11-24T18:03:59.816Z,24.42
2022-11-24T18:06:28.805Z,24.52
2022-11-24T18:08:57.757Z,25.75
2022-11-24T18:11:31.648Z,25.02
2022-11-24T18:14:02.948Z,26.02
2022-11-24T18:16:33.495Z,28.73
2022-11-24T18:19:09.142Z,25.98
2022-11-24T18:21:39.873Z,25.38
2022-11-24T18:24:10.177Z,26.38
2022-11-24T18:26:38.774Z,26.52
2022-11-24T18:29:06.489Z,25.85
2022-11-24T18:31:35.892Z,25.85
2022-11-24T18:34:05.757Z,25.70
2022-11-24T18:36:35.130Z,26.20
2022-11-24T18:39:08.217Z,27.00
2022-11-24T18:41:35.745Z,27.10
2022-11-24T18:44:08.161Z,24.95
2022-11-24T18:46:37.426Z,27.27
2022-11-24T18:49:05.869Z,27.83
2022-11-24T18:51:33.879Z,27.15
2022-11-24T18:54:03.167Z,28.92
2022-11-24T18:56:31.541Z,27.25
2022-11-24T18:58:59.122Z,26.90
2022-11-24T19:01:29.597Z,28.73
2022-11-24T19:04:01.797Z,26.90
2022-11-24T19:06:33.540Z,31.02
2022-11-24T19:09:18.564Z,31.02
2022-11-24T19:11:47.143Z,30.88
2022-11-24T19:14:25.331Z,31.27
2022-11-24T19:16:52.970Z,31.17
2022-11-24T19:19:21.092Z,31.77
2022-11-24T19:21:48.541Z,29.80
2022-11-24T19:24:20.034Z,31.70
2022-11-24T19:26:47.688Z,33.45
2022-11-24T19:29:15.808Z,32.75
2022-11-24T19:31:44.081Z,32.72
2022-11-24T19:34:13.453Z,30.58
2022-11-24T19:36:43.267Z,30.25
2022-11-24T19:39:54.284Z,28.25
2022-11-24T19:42:22.547Z,29.40
2022-11-24T19:44:54.772Z,26.85
2022-11-24T19:47:24.003Z,25.83
2022-11-24T19:54:44.164Z,23.83
2022-11-24T19:57:12.600Z,21.98
2022-11-24T19:59:39.995Z,24.42
2022-11-24T20:02:57.886Z,25.33
2022-11-24T20:06:41.874Z,25.67
2022-11-24T20:13:38.858Z,24.92
2022-11-24T20:16:12.681Z,24.17
2022-11-24T20:18:43.954Z,24.55
2022-11-24T20:21:13.634Z,24.38
2022-11-24T20:39:58.905Z,25.23
2022-11-24T21:06:51.338Z,21.77
2022-11-24T21:09:46.173Z,27.17
2022-11-24T21:13:11.350Z,23.38
2022-11-24T21:26:30.831Z,22.88
2022-11-24T21:29:03.287Z,23.58
2022-11-24T21:31:30.656Z,24.33
2022-11-24T21:33:57.805Z,23.10
2022-11-24T21:37:02.606Z,23.60
2022-11-24T21:40:06.804Z,22.42
2022-11-24T21:54:21.074Z,21.58
2022-11-24T21:57:34.298Z,20.90
2022-11-24T22:00:31.236Z,22.27
2022-11-24T22:35:44.050Z,17.05
2022-11-24T22:52:40.951Z,13.10
2022-11-24T22:59:46.692Z,12.77
2022-11-24T23:02:43.480Z,11.57
2022-11-24T23:05:48.651Z,6.75
2022-11-24T23:12:17.751Z,7.05
2022-11-24T23:15:44.752Z,6.53
2022-11-24T23:21:36.214Z,5.43
2022-11-24T23:24:13.350Z,5.68
2022-11-24T23:26:58.500Z,5.00
2022-11-24T23:29:29.202Z,5.18
2022-11-24T23:34:59.288Z,4.65
2022-11-24T23:37:52.164Z,5.43
2022-11-24T23:40:19.730Z,4.45
2022-11-24T23:42:48.287Z,4.20
2022-11-24T23:45:23.231Z,4.65
2022-11-24T23:47:53.633Z,4.68
2022-11-24T23:50:20.654Z,4.78
2022-11-24T23:52:47.863Z,4.43
2022-11-24T23:55:21.283Z,4.32
2022-11-24T23:58:31.461Z,4.78
